Time;durP1;ratioP1;P1;durP2;ratioP2;P2;SDS_P1;SDS_P2;PMS_P1;PMS_P2;Temp;Humidity;BMP_temperature;BMP_pressure;BME280_temperature;BME280_humidity;BME280_pressure;Samples;Min_cycle;Max_cycle;Signal;HPM_P1;HPM_P2
2021/01/17 00:00:24;;;;;;;23.25;12.25;;;;;;;;;;5115635;28;20027;-82
2021/01/17 00:02:53;;;;;;;25.70;13.88;;;;;;;;;;5115506;28;20470;-83
2021/01/17 00:05:21;;;;;;;28.40;16.08;;;;;;;;;;5115402;28;20026;-83
2021/01/17 00:07:47;;;;;;;32.15;16.95;;;;;;;;;;5113989;28;20129;-81
2021/01/17 00:10:14;;;;;;;34.20;19.20;;;;;;;;;;5115145;28;20035;-82
2021/01/17 00:12:41;;;;;;;34.72;22.17;;;;;;;;;;5115019;28;20360;-81
2021/01/17 00:15:14;;;;;;;36.05;21.33;;;;;;;;;;5113987;28;20458;-80
2021/01/17 00:17:41;;;;;;;33.53;21.52;;;;;;;;;;5115145;28;20493;-81
2021/01/17 00:20:11;;;;;;;29.42;18.02;;;;;;;;;;5115128;28;20028;-78
2021/01/17 00:22:37;;;;;;;28.83;18.52;;;;;;;;;;5114963;28;20107;-82
2021/01/17 00:25:04;;;;;;;24.02;14.52;;;;;;;;;;5114955;28;20073;-84
2021/01/17 00:27:30;;;;;;;24.05;15.90;;;;;;;;;;5114707;28;20459;-82
2021/01/17 00:29:56;;;;;;;20.40;13.50;;;;;;;;;;5114946;28;20058;-81
2021/01/17 00:32:22;;;;;;;22.85;13.05;;;;;;;;;;5114908;28;20454;-84
2021/01/17 00:34:48;;;;;;;22.05;14.00;;;;;;;;;;5114793;28;20459;-83
2021/01/17 00:37:15;;;;;;;26.52;15.32;;;;;;;;;;5114713;28;20032;-83
2021/01/17 00:39:41;;;;;;;32.53;20.55;;;;;;;;;;5113379;28;20592;-85
2021/01/17 00:42:11;;;;;;;45.38;29.85;;;;;;;;;;5114538;28;20032;-83
2021/01/17 00:44:37;;;;;;;30.48;19.17;;;;;;;;;;5114763;28;20106;-82
2021/01/17 00:47:03;;;;;;;29.55;17.30;;;;;;;;;;5113282;28;20031;-80
2021/01/17 00:49:29;;;;;;;24.58;13.88;;;;;;;;;;5114634;28;20056;-83
2021/01/17 00:51:55;;;;;;;21.00;12.23;;;;;;;;;;5114130;28;20518;-83
2021/01/17 00:54:22;;;;;;;19.88;11.80;;;;;;;;;;5114455;28;20031;-84
2021/01/17 00:56:48;;;;;;;17.05;10.25;;;;;;;;;;5114376;28;20419;-82
2021/01/17 00:59:14;;;;;;;20.10;11.20;;;;;;;;;;5114434;28;20020;-84
2021/01/17 01:01:41;;;;;;;18.80;10.88;;;;;;;;;;5114330;28;20486;-81
2021/01/17 01:04:08;;;;;;;18.58;10.20;;;;;;;;;;5114232;28;20028;-85
2021/01/17 01:06:34;;;;;;;21.33;12.38;;;;;;;;;;5114245;28;20020;-83
2021/01/17 01:09:04;;;;;;;19.27;11.75;;;;;;;;;;5112893;28;20015;-82
2021/01/17 01:11:30;;;;;;;19.60;11.70;;;;;;;;;;5112804;28;20047;-80
2021/01/17 01:13:56;;;;;;;22.00;13.05;;;;;;;;;;5112733;28;20467;-80
2021/01/17 01:16:22;;;;;;;21.75;12.70;;;;;;;;;;5114044;28;20030;-81
2021/01/17 01:18:48;;;;;;;21.33;12.13;;;;;;;;;;5114045;28;20031;-83
2021/01/17 01:21:15;;;;;;;22.00;11.95;;;;;;;;;;5113991;28;20050;-83
2021/01/17 01:23:41;;;;;;;17.10;10.80;;;;;;;;;;5113943;28;20043;-85
2021/01/17 01:26:07;;;;;;;20.60;12.13;;;;;;;;;;5114046;28;20378;-81
2021/01/17 01:28:33;;;;;;;18.25;11.55;;;;;;;;;;5112654;28;20028;-82
2021/01/17 01:30:59;;;;;;;15.65;10.63;;;;;;;;;;5113937;28;20081;-81
2021/01/17 01:33:26;;;;;;;21.33;11.48;;;;;;;;;;5112594;28;20525;-83
2021/01/17 01:35:52;;;;;;;19.50;11.82;;;;;;;;;;5113847;28;20035;-79
2021/01/17 01:38:18;;;;;;;18.27;11.68;;;;;;;;;;5113945;28;20066;-84
2021/01/17 01:40:54;;;;;;;20.15;12.60;;;;;;;;;;5113799;28;20028;-79
2021/01/17 01:43:22;;;;;;;20.00;11.75;;;;;;;;;;5113672;28;20031;-83
2021/01/17 01:45:48;;;;;;;22.27;13.90;;;;;;;;;;5113828;28;20416;-83
2021/01/17 01:48:15;;;;;;;25.55;15.60;;;;;;;;;;5113810;28;20024;-83
2021/01/17 01:50:41;;;;;;;27.67;15.50;;;;;;;;;;5113421;28;20056;-85
2021/01/17 01:53:07;;;;;;;24.98;13.93;;;;;;;;;;5113796;28;20102;-82
2021/01/17 01:55:34;;;;;;;21.58;13.25;;;;;;;;;;5112330;28;20080;-84
2021/01/17 01:58:02;;;;;;;21.88;13.65;;;;;;;;;;5113805;28;20404;-84
2021/01/17 02:00:28;;;;;;;22.30;14.48;;;;;;;;;;5113593;28;20024;-81
2021/01/17 02:02:54;;;;;;;27.63;15.27;;;;;;;;;;5113721;28;20106;-83
2021/01/17 02:05:20;;;;;;;23.92;14.65;;;;;;;;;;5113715;28;20064;-80
2021/01/17 02:08:04;;;;;;;28.25;15.93;;;;;;;;;;5113571;28;20539;-82
2021/01/17 02:10:31;;;;;;;29.67;17.00;;;;;;;;;;5113521;28;20028;-84
2021/01/17 02:13:06;;;;;;;27.33;15.80;;;;;;;;;;5117548;28;20059;-83
2021/01/17 02:15:34;;;;;;;25.05;15.98;;;;;;;;;;5117405;28;20497;-85
2021/01/17 02:18:01;;;;;;;30.73;15.95;;;;;;;;;;5116256;28;20031;-82
2021/01/17 02:20:27;;;;;;;25.35;14.55;;;;;;;;;;5117442;28;20466;-84
2021/01/17 02:23:02;;;;;;;29.85;17.10;;;;;;;;;;5117501;28;20051;-82
2021/01/17 02:25:39;;;;;;;30.25;16.55;;;;;;;;;;5116089;28;20511;-83
2021/01/17 02:28:06;;;;;;;28.70;16.13;;;;;;;;;;5117374;28;20102;-82
2021/01/17 02:30:34;;;;;;;25.05;15.15;;;;;;;;;;5117299;28;20024;-83
2021/01/17 02:33:24;;;;;;;23.67;14.98;;;;;;;;;;5117183;28;20032;-82
2021/01/17 02:35:52;;;;;;;29.17;17.90;;;;;;;;;;5106694;28;20120;-84
2021/01/17 02:38:20;;;;;;;39.92;22.40;;;;;;;;;;5117078;28;20028;-80
2021/01/17 02:41:05;;;;;;;25.98;18.25;;;;;;;;;;5116991;28;20402;-81
2021/01/17 02:43:32;;;;;;;37.00;21.52;;;;;;;;;;5116675;28;20032;-85
2021/01/17 02:45:58;;;;;;;40.45;22.85;;;;;;;;;;5117197;28;20028;-84
2021/01/17 02:48:24;;;;;;;42.45;22.05;;;;;;;;;;5117091;28;20024;-85
2021/01/17 02:50:50;;;;;;;40.83;23.58;;;;;;;;;;5116563;28;20384;-82
2021/01/17 02:53:23;;;;;;;32.47;20.63;;;;;;;;;;5116647;28;20038;-82
2021/01/17 02:55:51;;;;;;;27.80;16.00;;;;;;;;;;5116836;28;20068;-82
2021/01/17 02:58:17;;;;;;;21.80;14.90;;;;;;;;;;5116804;28;20084;-81
2021/01/17 03:00:46;;;;;;;22.08;14.23;;;;;;;;;;5116895;28;20098;-81
2021/01/17 03:03:14;;;;;;;26.63;16.02;;;;;;;;;;5116647;28;20023;-84
2021/01/17 03:05:41;;;;;;;24.15;14.13;;;;;;;;;;5115290;28;20020;-83
2021/01/17 03:08:07;;;;;;;22.23;13.45;;;;;;;;;;5116453;28;20058;-85
2021/01/17 03:10:34;;;;;;;26.20;14.68;;;;;;;;;;5116479;28;20015;-86
2021/01/17 03:13:03;;;;;;;23.88;14.90;;;;;;;;;;5115209;28;20054;-83
2021/01/17 03:15:32;;;;;;;30.40;18.02;;;;;;;;;;5116255;28;20032;-85
2021/01/17 03:17:58;;;;;;;23.05;15.80;;;;;;;;;;5116428;28;20055;-84
2021/01/17 03:20:24;;;;;;;22.85;15.02;;;;;;;;;;5116254;28;20076;-86
2021/01/17 03:22:51;;;;;;;26.00;16.85;;;;;;;;;;5116238;28;20019;-82
2021/01/17 03:25:17;;;;;;;27.20;16.25;;;;;;;;;;5116157;28;20023;-83
2021/01/17 03:27:43;;;;;;;22.27;14.15;;;;;;;;;;5116288;28;20059;-84
2021/01/17 03:30:09;;;;;;;22.30;13.23;;;;;;;;;;5116027;28;20055;-82
2021/01/17 03:32:35;;;;;;;19.45;12.40;;;;;;;;;;5114773;28;20062;-81
2021/01/17 03:35:02;;;;;;;20.38;12.27;;;;;;;;;;5115923;28;20462;-82
2021/01/17 03:37:28;;;;;;;19.85;12.10;;;;;;;;;;5115954;28;20107;-81
2021/01/17 03:39:54;;;;;;;20.20;12.80;;;;;;;;;;5114633;28;20024;-83
2021/01/17 03:42:20;;;;;;;21.95;14.13;;;;;;;;;;5114590;28;20462;-83
2021/01/17 03:44:48;;;;;;;21.08;12.77;;;;;;;;;;5115958;28;20023;-83
2021/01/17 03:47:14;;;;;;;27.92;16.15;;;;;;;;;;5115819;28;20023;-85
2021/01/17 03:49:40;;;;;;;25.40;15.07;;;;;;;;;;5115738;28;20065;-82
2021/01/17 03:52:06;;;;;;;27.65;15.80;;;;;;;;;;5115444;28;20040;-84
2021/01/17 03:54:32;;;;;;;24.98;14.30;;;;;;;;;;5115427;28;20034;-81
2021/01/17 03:56:59;;;;;;;23.58;14.25;;;;;;;;;;5115642;28;20028;-82
2021/01/17 03:59:25;;;;;;;24.40;15.30;;;;;;;;;;5115353;28;20486;-85
2021/01/17 04:01:51;;;;;;;21.73;13.63;;;;;;;;;;5114199;28;20023;-82
2021/01/17 04:04:17;;;;;;;23.77;15.63;;;;;;;;;;5114243;28;20028;-86
2021/01/17 04:06:44;;;;;;;27.52;15.75;;;;;;;;;;5114266;28;20073;-84
2021/01/17 04:09:10;;;;;;;25.90;16.20;;;;;;;;;;5113861;28;20049;-83
2021/01/17 04:11:36;;;;;;;25.77;14.52;;;;;;;;;;5115244;28;20089;-83
2021/01/17 04:14:02;;;;;;;27.05;15.38;;;;;;;;;;5115022;28;20032;-82
2021/01/17 04:16:28;;;;;;;22.80;14.00;;;;;;;;;;5115300;28;20024;-78
2021/01/17 04:18:54;;;;;;;23.40;14.73;;;;;;;;;;5113838;28;20035;-83
2021/01/17 04:21:21;;;;;;;21.65;12.70;;;;;;;;;;5113818;28;20051;-82
2021/01/17 04:23:47;;;;;;;20.95;13.25;;;;;;;;;;5115018;28;20427;-82
2021/01/17 04:26:13;;;;;;;27.02;15.63;;;;;;;;;;5113759;28;20080;-82
2021/01/17 04:28:39;;;;;;;21.90;13.60;;;;;;;;;;5114862;28;20034;-78
2021/01/17 04:31:05;;;;;;;23.13;13.68;;;;;;;;;;5115126;28;20023;-80
2021/01/17 04:33:31;;;;;;;23.95;14.68;;;;;;;;;;5114234;28;20028;-79
2021/01/17 04:35:57;;;;;;;19.85;12.98;;;;;;;;;;5114846;28;20190;-82
2021/01/17 04:38:23;;;;;;;24.80;16.17;;;;;;;;;;5114629;28;20110;-82
2021/01/17 04:40:50;;;;;;;22.92;15.18;;;;;;;;;;5114793;28;20529;-80
2021/01/17 04:43:20;;;;;;;21.58;14.60;;;;;;;;;;5114600;28;20030;-82
2021/01/17 04:45:47;;;;;;;24.52;16.33;;;;;;;;;;5114581;28;20058;-81
2021/01/17 04:48:14;;;;;;;24.50;14.02;;;;;;;;;;5114493;28;20028;-84
2021/01/17 04:50:42;;;;;;;20.15;12.50;;;;;;;;;;5114425;28;20422;-83
2021/01/17 04:53:10;;;;;;;23.60;15.65;;;;;;;;;;5114642;28;20027;-84
2021/01/17 04:55:36;;;;;;;19.92;13.00;;;;;;;;;;5114243;28;20043;-81
2021/01/17 04:58:09;;;;;;;19.08;12.15;;;;;;;;;;5114611;28;20025;-80
2021/01/17 05:00:39;;;;;;;21.38;14.02;;;;;;;;;;5114371;28;20399;-83
2021/01/17 05:03:25;;;;;;;21.73;13.43;;;;;;;;;;5114358;28;20047;-83
2021/01/17 05:06:10;;;;;;;22.63;13.35;;;;;;;;;;5114325;28;20032;-81
2021/01/17 05:08:36;;;;;;;18.92;11.40;;;;;;;;;;5114227;28;20388;-85
2021/01/17 05:11:06;;;;;;;19.35;11.55;;;;;;;;;;5114134;28;20047;-84
2021/01/17 05:13:39;;;;;;;21.63;14.52;;;;;;;;;;5114117;28;20489;-84
2021/01/17 05:16:07;;;;;;;20.52;11.43;;;;;;;;;;5114168;28;20217;-85
2021/01/17 05:18:34;;;;;;;23.98;13.88;;;;;;;;;;5112718;28;20089;-82
2021/01/17 05:21:01;;;;;;;22.52;14.25;;;;;;;;;;5112827;28;20106;-81
2021/01/17 05:23:35;;;;;;;24.05;12.82;;;;;;;;;;5113831;28;20027;-86
2021/01/17 05:26:02;;;;;;;16.42;10.02;;;;;;;;;;5114164;28;20024;-83
2021/01/17 05:28:47;;;;;;;21.10;12.45;;;;;;;;;;5114120;28;20019;-82
2021/01/17 05:31:13;;;;;;;30.05;16.40;;;;;;;;;;5112771;28;20475;-84
2021/01/17 05:33:39;;;;;;;20.38;11.98;;;;;;;;;;5112637;28;20122;-82
2021/01/17 05:36:05;;;;;;;19.38;12.15;;;;;;;;;;5114049;28;20032;-82
2021/01/17 05:38:32;;;;;;;19.40;11.93;;;;;;;;;;5112458;28;20555;-83
2021/01/17 05:40:58;;;;;;;18.58;12.15;;;;;;;;;;5113999;28;20020;-83
2021/01/17 05:43:24;;;;;;;18.52;12.27;;;;;;;;;;5114088;28;20051;-82
2021/01/17 05:45:50;;;;;;;19.05;12.73;;;;;;;;;;5115645;28;20028;-83
2021/01/17 05:48:16;;;;;;;19.50;12.93;;;;;;;;;;5118108;28;20092;-88
2021/01/17 05:50:43;;;;;;;22.38;12.93;;;;;;;;;;5116485;28;20043;-82
2021/01/17 05:53:10;;;;;;;22.30;12.93;;;;;;;;;;5118035;28;20027;-82
2021/01/17 05:55:37;;;;;;;21.23;12.82;;;;;;;;;;5117974;28;20505;-86
2021/01/17 05:58:22;;;;;;;22.60;13.18;;;;;;;;;;5118118;28;20034;-82
2021/01/17 06:00:48;;;;;;;;;;;;;;;;;;5118300;28;20042;-86
2021/01/17 06:03:17;;;;;;;20.77;12.07;;;;;;;;;;5116729;28;19948;-85
2021/01/17 06:05:46;;;;;;;19.17;12.45;;;;;;;;;;5116870;28;20026;-86
2021/01/17 06:08:13;;;;;;;22.33;13.48;;;;;;;;;;5117885;28;20034;-84
2021/01/17 06:10:41;;;;;;;18.55;11.27;;;;;;;;;;5117763;28;20032;-82
2021/01/17 06:13:07;;;;;;;21.65;12.98;;;;;;;;;;5117706;28;20046;-81
2021/01/17 06:15:33;;;;;;;23.17;13.23;;;;;;;;;;5117634;28;20115;-85
2021/01/17 06:18:00;;;;;;;24.75;14.05;;;;;;;;;;5116257;28;20065;-81
2021/01/17 06:20:26;;;;;;;27.23;16.88;;;;;;;;;;5117467;28;20032;-86
2021/01/17 06:22:56;;;;;;;43.08;26.27;;;;;;;;;;5117472;28;20035;-82
2021/01/17 06:25:29;;;;;;;38.45;22.90;;;;;;;;;;5117144;28;20551;-83
2021/01/17 06:28:14;;;;;;;79.60;47.88;;;;;;;;;;5117145;28;20028;-84
2021/01/17 06:30:40;;;;;;;72.47;41.80;;;;;;;;;;5117390;28;20023;-80
2021/01/17 06:33:07;;;;;;;96.28;49.33;;;;;;;;;;5117134;28;20032;-81
2021/01/17 06:35:33;;;;;;;56.58;34.45;;;;;;;;;;5117124;28;20525;-80
2021/01/17 06:38:18;;;;;;;48.65;28.58;;;;;;;;;;5117114;28;20027;-81
2021/01/17 06:40:47;;;;;;;50.83;29.30;;;;;;;;;;5117052;28;20027;-81
2021/01/17 06:43:14;;;;;;;44.17;28.05;;;;;;;;;;5117101;28;20031;-84
2021/01/17 06:45:49;;;;;;;42.10;26.40;;;;;;;;;;5116968;28;20090;-82
2021/01/17 06:48:22;;;;;;;39.28;26.60;;;;;;;;;;5117099;28;20024;-81
2021/01/17 06:50:48;;;;;;;41.15;24.48;;;;;;;;;;5116783;28;20062;-86
2021/01/17 06:53:33;;;;;;;44.90;29.00;;;;;;;;;;5116783;28;20020;-82
2021/01/17 06:56:19;;;;;;;46.58;29.85;;;;;;;;;;5116455;28;20028;-83
2021/01/17 06:58:45;;;;;;;55.17;31.23;;;;;;;;;;5116642;28;20378;-80
2021/01/17 07:01:12;;;;;;;43.53;24.33;;;;;;;;;;5116754;28;20024;-84
2021/01/17 07:03:56;;;;;;;35.55;20.10;;;;;;;;;;5116789;28;20035;-84
2021/01/17 07:06:41;;;;;;;31.33;18.52;;;;;;;;;;5116660;28;20028;-86
2021/01/17 07:09:09;;;;;;;29.83;17.60;;;;;;;;;;5116441;28;20030;-83
2021/01/17 07:11:54;;;;;;;30.85;16.63;;;;;;;;;;5115164;28;20044;-84
2021/01/17 07:14:24;;;;;;;25.90;13.45;;;;;;;;;;5116269;28;20024;-80
2021/01/17 07:16:52;;;;;;;30.92;17.05;;;;;;;;;;5116453;28;20068;-84
2021/01/17 07:19:20;;;;;;;23.08;12.73;;;;;;;;;;5116341;28;20079;-82
2021/01/17 07:21:49;;;;;;;25.80;14.40;;;;;;;;;;5116266;28;20367;-83
2021/01/17 07:24:16;;;;;;;25.77;14.88;;;;;;;;;;5116134;28;20027;-83
2021/01/17 07:26:50;;;;;;;26.65;15.57;;;;;;;;;;5114949;28;20024;-86
2021/01/17 07:29:17;;;;;;;30.75;16.65;;;;;;;;;;5116079;28;20027;-81
2021/01/17 07:31:44;;;;;;;31.00;16.85;;;;;;;;;;5116245;28;20024;-84
2021/01/17 07:34:12;;;;;;;30.38;19.15;;;;;;;;;;5115913;28;20032;-85
2021/01/17 07:36:49;;;;;;;17.85;10.75;;;;;;;;;;5115985;28;20024;-83
2021/01/17 07:39:17;;;;;;;18.60;11.75;;;;;;;;;;5116012;28;20023;-84
2021/01/17 07:41:46;;;;;;;23.13;12.52;;;;;;;;;;5115962;28;20027;-83
2021/01/17 07:44:15;;;;;;;21.52;11.60;;;;;;;;;;5115818;28;20024;-85
2021/01/17 07:46:42;;;;;;;15.27;8.85;;;;;;;;;;5115836;28;20028;-83
2021/01/17 07:49:10;;;;;;;21.25;13.05;;;;;;;;;;5115714;28;20031;-85
2021/01/17 07:51:37;;;;;;;13.00;7.93;;;;;;;;;;5114140;28;20047;-86
2021/01/17 07:54:21;;;;;;;15.68;9.65;;;;;;;;;;5114357;28;20453;-86
2021/01/17 07:56:48;;;;;;;14.88;9.50;;;;;;;;;;5114636;28;20026;-84
2021/01/17 07:59:23;;;;;;;15.65;8.35;;;;;;;;;;5115787;28;20104;-83
2021/01/17 08:01:49;;;;;;;12.95;8.18;;;;;;;;;;5115519;28;20024;-88
2021/01/17 08:04:18;;;;;;;17.67;10.65;;;;;;;;;;5115444;28;20020;-83
2021/01/17 08:06:47;;;;;;;16.13;9.93;;;;;;;;;;5115464;28;20027;-82
2021/01/17 08:09:14;;;;;;;17.17;11.07;;;;;;;;;;5114495;28;20050;-80
2021/01/17 08:11:56;;;;;;;23.65;15.60;;;;;;;;;;5115213;28;20031;-85
2021/01/17 08:14:26;;;;;;;15.40;9.85;;;;;;;;;;5115145;28;20059;-85
2021/01/17 08:17:11;;;;;;;17.02;9.18;;;;;;;;;;5115325;28;20546;-84
2021/01/17 08:19:44;;;;;;;14.15;8.52;;;;;;;;;;5114148;28;20027;-85
2021/01/17 08:22:19;;;;;;;10.18;7.03;;;;;;;;;;5115161;28;20099;-84
2021/01/17 08:24:46;;;;;;;15.70;7.15;;;;;;;;;;5115087;28;20023;-82
2021/01/17 08:27:30;;;;;;;15.68;9.40;;;;;;;;;;5114881;28;20449;-83
2021/01/17 08:29:56;;;;;;;;;;;;;;;;;;5115453;28;20550;-83
2021/01/17 08:32:43;;;;;;;14.07;8.25;;;;;;;;;;5114959;28;19907;-84
2021/01/17 08:35:27;;;;;;;16.65;9.65;;;;;;;;;;5113534;28;20027;-83
2021/01/17 08:37:53;;;;;;;16.20;9.43;;;;;;;;;;5114939;28;20033;-86
2021/01/17 08:40:39;;;;;;;27.73;15.85;;;;;;;;;;5113532;28;20023;-82
2021/01/17 08:43:05;;;;;;;16.70;10.10;;;;;;;;;;5114587;28;20023;-82
2021/01/17 08:45:42;;;;;;;14.02;9.18;;;;;;;;;;5114691;28;20455;-83
2021/01/17 08:48:17;;;;;;;19.70;11.43;;;;;;;;;;5114578;28;20091;-84
2021/01/17 08:50:47;;;;;;;20.50;13.35;;;;;;;;;;5114506;28;20044;-81
2021/01/17 08:53:32;;;;;;;27.15;16.27;;;;;;;;;;5114587;28;20055;-86
2021/01/17 08:56:20;;;;;;;19.38;10.82;;;;;;;;;;5114386;28;20047;-86
2021/01/17 08:58:47;;;;;;;20.73;14.23;;;;;;;;;;5114646;28;20549;-85
2021/01/17 09:01:15;;;;;;;14.80;9.95;;;;;;;;;;5114380;28;20090;-86
2021/01/17 09:03:44;;;;;;;18.42;10.70;;;;;;;;;;5114485;28;20031;-86
2021/01/17 09:06:13;;;;;;;21.88;13.70;;;;;;;;;;5114432;28;20088;-81
2021/01/17 09:08:58;;;;;;;17.27;10.05;;;;;;;;;;5114486;28;20390;-85
2021/01/17 09:11:32;;;;;;;17.35;10.38;;;;;;;;;;5114293;28;20027;-85
2021/01/17 09:14:17;;;;;;;16.75;10.32;;;;;;;;;;5114735;28;20019;-82
2021/01/17 09:16:47;;;;;;;15.90;9.25;;;;;;;;;;5114293;28;20019;-79
2021/01/17 09:19:13;;;;;;;16.95;9.98;;;;;;;;;;5112692;28;20038;-82
2021/01/17 09:21:40;;;;;;;16.77;10.48;;;;;;;;;;5112756;28;20024;-85
2021/01/17 09:24:07;;;;;;;18.88;11.10;;;;;;;;;;5114102;28;20482;-83
2021/01/17 09:26:34;;;;;;;17.73;10.77;;;;;;;;;;5114087;28;20023;-87
2021/01/17 09:29:00;;;;;;;22.33;11.45;;;;;;;;;;5113921;28;20092;-84
2021/01/17 09:31:28;;;;;;;22.15;13.18;;;;;;;;;;5113929;28;20416;-83
2021/01/17 09:33:54;;;;;;;14.88;9.07;;;;;;;;;;5113838;28;20031;-85
2021/01/17 09:36:22;;;;;;;19.73;10.40;;;;;;;;;;5112705;28;20030;-84
2021/01/17 09:38:48;;;;;;;18.52;11.70;;;;;;;;;;5113780;28;20031;-81
2021/01/17 09:41:21;;;;;;;20.25;11.48;;;;;;;;;;5113791;28;20043;-84
2021/01/17 09:43:48;;;;;;;20.38;9.35;;;;;;;;;;5112499;28;20031;-83
2021/01/17 09:46:19;;;;;;;24.25;14.85;;;;;;;;;;5113838;28;20494;-83
2021/01/17 09:48:45;;;;;;;22.02;12.25;;;;;;;;;;5113785;28;20024;-86
2021/01/17 09:51:11;;;;;;;33.17;18.30;;;;;;;;;;5113497;28;20052;-87
2021/01/17 09:53:37;;;;;;;28.15;17.83;;;;;;;;;;5113657;28;20031;-85
2021/01/17 09:56:04;;;;;;;26.05;16.20;;;;;;;;;;5113616;28;20046;-83
2021/01/17 09:58:31;;;;;;;22.80;13.38;;;;;;;;;;5112426;28;20110;-83
2021/01/17 10:00:57;;;;;;;22.13;14.23;;;;;;;;;;5113661;28;20066;-82
2021/01/17 10:03:28;;;;;;;26.73;14.23;;;;;;;;;;5113811;28;20019;-83
2021/01/17 10:05:54;;;;;;;26.52;15.68;;;;;;;;;;5113657;28;20344;-86
2021/01/17 10:08:20;;;;;;;23.38;17.17;;;;;;;;;;5112363;28;20053;-82
2021/01/17 10:10:47;;;;;;;14.50;9.38;;;;;;;;;;5113717;28;20058;-85
2021/01/17 10:13:13;;;;;;;31.10;18.38;;;;;;;;;;5113599;28;20027;-81
2021/01/17 10:15:40;;;;;;;42.03;24.92;;;;;;;;;;5113514;28;20036;-82
2021/01/17 10:18:06;;;;;;;33.28;18.95;;;;;;;;;;5113495;28;20024;-84
2021/01/17 10:20:33;;;;;;;27.25;14.93;;;;;;;;;;5113462;28;20030;-83
2021/01/17 10:23:01;;;;;;;59.95;34.75;;;;;;;;;;5113278;28;20031;-82
2021/01/17 10:25:28;;;;;;;27.10;16.83;;;;;;;;;;5113643;28;20020;-83
2021/01/17 10:28:07;;;;;;;27.60;15.50;;;;;;;;;;5113664;28;20467;-85
2021/01/17 10:30:34;;;;;;;29.42;19.10;;;;;;;;;;5113475;28;20102;-85
2021/01/17 10:33:07;;;;;;;23.60;15.38;;;;;;;;;;5116703;28;20023;-83
2021/01/17 10:35:35;;;;;;;23.45;15.68;;;;;;;;;;5117348;28;20036;-85
2021/01/17 10:38:04;;;;;;;35.70;21.98;;;;;;;;;;5115918;28;20024;-82
2021/01/17 10:40:30;;;;;;;25.45;16.73;;;;;;;;;;5117187;28;20052;-85
2021/01/17 10:42:58;;;;;;;21.38;11.73;;;;;;;;;;5117195;28;20028;-83
2021/01/17 10:45:28;;;;;;;25.60;16.48;;;;;;;;;;5117068;28;20035;-83
2021/01/17 10:47:59;;;;;;;21.17;14.50;;;;;;;;;;5116942;28;20024;-84
2021/01/17 10:50:27;;;;;;;37.13;22.90;;;;;;;;;;5116906;28;20040;-82
2021/01/17 10:53:02;;;;;;;21.55;14.80;;;;;;;;;;5116940;28;20386;-80
2021/01/17 10:55:31;;;;;;;42.08;26.55;;;;;;;;;;5115636;28;20381;-85
2021/01/17 10:57:57;;;;;;;23.25;16.23;;;;;;;;;;5115595;28;20023;-85
2021/01/17 11:00:24;;;;;;;15.60;9.60;;;;;;;;;;5116900;28;20023;-82
2021/01/17 11:03:09;;;;;;;22.02;14.07;;;;;;;;;;5116855;28;20028;-82
2021/01/17 11:05:35;;;;;;;;;;;;;;;;;;5117194;28;20076;-84
2021/01/17 11:08:01;;;;;;;21.05;12.10;;;;;;;;;;5115428;28;19904;-81
2021/01/17 11:10:28;;;;;;;26.10;15.98;;;;;;;;;;5116574;28;20024;-83
2021/01/17 11:12:54;;;;;;;17.77;11.25;;;;;;;;;;5116580;28;20028;-86
2021/01/17 11:15:21;;;;;;;18.15;11.35;;;;;;;;;;5116973;28;20463;-84
2021/01/17 11:17:54;;;;;;;18.13;12.07;;;;;;;;;;5115515;28;20027;-86
2021/01/17 11:20:24;;;;;;;20.98;13.07;;;;;;;;;;5116533;28;20031;-84
2021/01/17 11:22:52;;;;;;;18.98;12.80;;;;;;;;;;5116407;28;20047;-84
2021/01/17 11:25:19;;;;;;;18.42;12.98;;;;;;;;;;5116411;28;20459;-87
2021/01/17 11:27:46;;;;;;;23.17;14.32;;;;;;;;;;5116374;28;20085;-81
2021/01/17 11:30:13;;;;;;;16.40;9.68;;;;;;;;;;5114952;28;20028;-80
2021/01/17 11:32:39;;;;;;;23.58;15.57;;;;;;;;;;5115058;28;20038;-79
2021/01/17 11:35:06;;;;;;;15.10;10.18;;;;;;;;;;5116182;28;20042;-81
2021/01/17 11:37:33;;;;;;;19.33;12.75;;;;;;;;;;5116296;28;20438;-82
2021/01/17 11:40:18;;;;;;;15.80;9.45;;;;;;;;;;5116249;28;20899;-84
2021/01/17 11:42:44;;;;;;;18.42;10.98;;;;;;;;;;5114782;28;20092;-85
2021/01/17 11:45:16;;;;;;;13.30;7.80;;;;;;;;;;5115969;28;20459;-87
2021/01/17 11:47:43;;;;;;;18.38;8.65;;;;;;;;;;5116015;28;20023;-84
2021/01/17 11:50:28;;;;;;;22.52;10.80;;;;;;;;;;5115605;27;20030;-85
2021/01/17 11:52:54;;;;;;;;;;;;;;;;;;5114974;28;20114;-88
2021/01/17 11:55:20;;;;;;;15.52;10.00;;;;;;;;;;5115601;28;20006;-81
2021/01/17 11:57:46;;;;;;;12.73;8.20;;;;;;;;;;5115837;28;20416;-81
2021/01/17 12:00:12;;;;;;;12.93;7.60;;;;;;;;;;5115823;28;20076;-83
2021/01/17 12:02:40;;;;;;;32.63;17.70;;;;;;;;;;5115574;28;20059;-83
2021/01/17 12:05:06;;;;;;;37.60;24.73;;;;;;;;;;5115610;28;20036;-83
2021/01/17 12:07:32;;;;;;;21.15;12.77;;;;;;;;;;5115360;28;20072;-83
2021/01/17 12:10:03;;;;;;;20.92;14.32;;;;;;;;;;5115429;28;20114;-81
2021/01/17 12:12:34;;;;;;;17.92;12.02;;;;;;;;;;5115410;28;20028;-83
2021/01/17 12:15:00;;;;;;;29.10;14.65;;;;;;;;;;5115205;28;20134;-85
2021/01/17 12:17:26;;;;;;;14.30;9.77;;;;;;;;;;5115314;28;20024;-81
2021/01/17 12:19:53;;;;;;;13.38;8.00;;;;;;;;;;5115180;28;20088;-81
2021/01/17 12:22:19;;;;;;;15.65;10.25;;;;;;;;;;5115397;28;20119;-82
2021/01/17 12:24:45;;;;;;;17.15;11.43;;;;;;;;;;5115359;28;20028;-82
2021/01/17 12:27:11;;;;;;;13.38;7.25;;;;;;;;;;5115273;28;20027;-87
2021/01/17 12:29:37;;;;;;;11.57;7.65;;;;;;;;;;5115050;28;20355;-82
2021/01/17 12:32:04;;;;;;;19.42;11.07;;;;;;;;;;5115233;28;20120;-84
2021/01/17 12:34:30;;;;;;;21.15;12.20;;;;;;;;;;5114818;28;20439;-84
2021/01/17 12:36:56;;;;;;;24.70;16.02;;;;;;;;;;5115312;28;20032;-86
2021/01/17 12:39:22;;;;;;;12.13;7.07;;;;;;;;;;5114926;28;20035;-82
2021/01/17 12:41:51;;;;;;;15.10;9.20;;;;;;;;;;5114760;28;20392;-88
2021/01/17 12:44:18;;;;;;;18.92;11.43;;;;;;;;;;5114808;28;20454;-84
2021/01/17 12:46:44;;;;;;;27.60;16.02;;;;;;;;;;5114793;28;20042;-85
2021/01/17 12:49:10;;;;;;;24.83;15.07;;;;;;;;;;5114648;28;20034;-84
2021/01/17 12:51:37;;;;;;;30.58;19.30;;;;;;;;;;5114216;28;20101;-82
2021/01/17 12:54:03;;;;;;;26.08;15.30;;;;;;;;;;5114921;28;20105;-87
2021/01/17 12:56:29;;;;;;;20.95;14.23;;;;;;;;;;5114546;28;20069;-86
2021/01/17 12:58:55;;;;;;;23.98;16.10;;;;;;;;;;5114455;28;20020;-81
2021/01/17 13:01:21;;;;;;;21.10;15.50;;;;;;;;;;5114505;28;20061;-84
2021/01/17 13:03:48;;;;;;;21.20;13.80;;;;;;;;;;5114398;28;20102;-86
2021/01/17 13:06:14;;;;;;;19.33;12.07;;;;;;;;;;5114569;28;20472;-82
2021/01/17 13:08:42;;;;;;;21.13;13.23;;;;;;;;;;5114320;28;20042;-84
2021/01/17 13:11:09;;;;;;;24.58;14.10;;;;;;;;;;5114170;28;20031;-86
2021/01/17 13:13:35;;;;;;;56.05;27.10;;;;;;;;;;5114232;28;20120;-82
2021/01/17 13:16:03;;;;;;;22.65;13.73;;;;;;;;;;5114554;28;20038;-83
2021/01/17 13:18:29;;;;;;;49.35;30.33;;;;;;;;;;5114196;28;20023;-81
2021/01/17 13:20:55;;;;;;;35.25;22.08;;;;;;;;;;5114080;28;20111;-84
2021/01/17 13:23:21;;;;;;;24.48;15.95;;;;;;;;;;5114183;28;20022;-81
2021/01/17 13:25:47;;;;;;;19.60;13.20;;;;;;;;;;5114048;28;20024;-84
2021/01/17 13:28:14;;;;;;;18.25;13.85;;;;;;;;;;5113931;28;20035;-84
2021/01/17 13:30:41;;;;;;;21.00;14.85;;;;;;;;;;5114164;28;20027;-83
2021/01/17 13:33:12;;;;;;;22.20;16.13;;;;;;;;;;5113989;28;20054;-85
2021/01/17 13:35:39;;;;;;;17.73;12.20;;;;;;;;;;5113894;28;20028;-84
2021/01/17 13:38:05;;;;;;;19.52;12.40;;;;;;;;;;5113988;28;20111;-81
2021/01/17 13:40:32;;;;;;;25.88;17.48;;;;;;;;;;5114085;28;20106;-81
2021/01/17 13:42:58;;;;;;;26.67;18.02;;;;;;;;;;5113961;28;20059;-82
2021/01/17 13:45:25;;;;;;;36.17;24.30;;;;;;;;;;5114006;28;20020;-82
2021/01/17 13:47:51;;;;;;;20.60;13.35;;;;;;;;;;5113870;28;20475;-86
2021/01/17 13:50:18;;;;;;;32.65;19.75;;;;;;;;;;5112275;28;20104;-85
2021/01/17 13:52:45;;;;;;;71.47;42.88;;;;;;;;;;5113974;28;20100;-81
2021/01/17 13:55:11;;;;;;;48.80;29.10;;;;;;;;;;5113770;28;20039;-82
2021/01/17 13:57:38;;;;;;;29.95;20.25;;;;;;;;;;5113793;28;20028;-85
2021/01/17 14:00:06;;;;;;;39.28;26.13;;;;;;;;;;5113926;28;20098;-88
2021/01/17 14:02:32;;;;;;;44.60;28.88;;;;;;;;;;5112626;28;20031;-85
2021/01/17 14:04:58;;;;;;;36.30;25.00;;;;;;;;;;5113806;28;20471;-84
2021/01/17 14:07:24;;;;;;;48.35;31.52;;;;;;;;;;5116662;28;20055;-82
2021/01/17 14:09:50;;;;;;;45.65;27.85;;;;;;;;;;5117791;28;20038;-83
2021/01/17 14:12:16;;;;;;;22.25;14.05;;;;;;;;;;5117785;28;20081;-83
2021/01/17 14:14:43;;;;;;;26.75;16.92;;;;;;;;;;5117689;28;20036;-79
2021/01/17 14:17:09;;;;;;;23.85;15.55;;;;;;;;;;5117630;28;20027;-84
2021/01/17 14:19:35;;;;;;;20.67;13.02;;;;;;;;;;5117524;28;20106;-79
2021/01/17 14:22:01;;;;;;;41.22;24.67;;;;;;;;;;5117594;28;20020;-80
2021/01/17 14:24:27;;;;;;;32.08;23.05;;;;;;;;;;5117357;28;20581;-81
2021/01/17 14:26:54;;;;;;;25.35;16.27;;;;;;;;;;5117585;28;20023;-80